sensor_id;sensor_type;location;lat;lon;timestamp;pressure;altitude;pressure_sealevel;temperature;humidity
67109;BME280;54027;50.786;7.058;2023-05-20T00:01:26;101645.69;;;12.98;65.37
67109;BME280;54027;50.786;7.058;2023-05-20T00:03:52;101629.25;;;13.04;64.77
67109;BME280;54027;50.786;7.058;2023-05-20T00:06:17;101628.38;;;13.08;64.54
67109;BME280;54027;50.786;7.058;2023-05-20T00:08:42;101630.97;;;13.06;64.49
67109;BME280;54027;50.786;7.058;2023-05-20T00:11:08;101632.72;;;13.01;64.73
67109;BME280;54027;50.786;7.058;2023-05-20T00:13:33;101631.00;;;12.95;64.94
67109;BME280;54027;50.786;7.058;2023-05-20T00:16:00;101640.53;;;12.90;64.95
67109;BME280;54027;50.786;7.058;2023-05-20T00:18:25;101642.28;;;12.84;65.09
67109;BME280;54027;50.786;7.058;2023-05-20T00:20:51;101639.69;;;12.82;65.21
67109;BME280;54027;50.786;7.058;2023-05-20T00:23:18;101644.06;;;12.76;65.39
67109;BME280;54027;50.786;7.058;2023-05-20T00:25:44;101647.53;;;12.72;65.60
67109;BME280;54027;50.786;7.058;2023-05-20T00:28:09;101652.72;;;12.66;65.91
67109;BME280;54027;50.786;7.058;2023-05-20T00:30:35;101648.41;;;12.63;66.03
67109;BME280;54027;50.786;7.058;2023-05-20T00:33:00;101654.47;;;12.61;66.74
67109;BME280;54027;50.786;7.058;2023-05-20T00:35:25;101654.47;;;12.58;66.25
67109;BME280;54027;50.786;7.058;2023-05-20T00:37:51;101655.34;;;12.54;66.69
67109;BME280;54027;50.786;7.058;2023-05-20T00:40:16;101654.50;;;12.49;67.41
67109;BME280;54027;50.786;7.058;2023-05-20T00:42:42;101658.81;;;12.43;67.58
67109;BME280;54027;50.786;7.058;2023-05-20T00:45:07;101657.13;;;12.36;67.72
67109;BME280;54027;50.786;7.058;2023-05-20T00:47:34;101653.66;;;12.33;67.90
67109;BME280;54027;50.786;7.058;2023-05-20T00:50:00;101650.19;;;12.29;67.82
67109;BME280;54027;50.786;7.058;2023-05-20T00:52:30;101647.59;;;12.26;68.13
67109;BME280;54027;50.786;7.058;2023-05-20T00:54:56;101647.59;;;12.26;68.15
67109;BME280;54027;50.786;7.058;2023-05-20T00:57:22;101645.00;;;12.26;68.22
67109;BME280;54027;50.786;7.058;2023-05-20T00:59:47;101648.47;;;12.24;68.59
67109;BME280;54027;50.786;7.058;2023-05-20T01:02:13;101646.75;;;12.21;68.91
67109;BME280;54027;50.786;7.058;2023-05-20T01:04:38;101657.13;;;12.17;69.65
67109;BME280;54027;50.786;7.058;2023-05-20T01:07:05;101655.41;;;12.08;70.34
67109;BME280;54027;50.786;7.058;2023-05-20T01:09:32;101653.69;;;11.98;70.59
67109;BME280;54027;50.786;7.058;2023-05-20T01:14:36;101663.19;;;11.81;71.79
67109;BME280;54027;50.786;7.058;2023-05-20T01:17:04;101659.72;;;11.79;71.85
67109;BME280;54027;50.786;7.058;2023-05-20T01:19:40;101648.50;;;11.77;72.37
67109;BME280;54027;50.786;7.058;2023-05-20T01:22:08;101639.84;;;11.76;72.85
67109;BME280;54027;50.786;7.058;2023-05-20T01:24:40;101634.66;;;11.70;73.22
67109;BME280;54027;50.786;7.058;2023-05-20T01:27:06;101644.16;;;11.64;73.41
67109;BME280;54027;50.786;7.058;2023-05-20T01:29:36;101631.19;;;11.58;73.98
67109;BME280;54027;50.786;7.058;2023-05-20T01:32:04;101633.78;;;11.55;73.75
67109;BME280;54027;50.786;7.058;2023-05-20T01:34:31;101632.94;;;11.51;73.62
67109;BME280;54027;50.786;7.058;2023-05-20T01:36:57;101625.16;;;11.47;73.67
67109;BME280;54027;50.786;7.058;2023-05-20T01:39:23;101627.72;;;11.44;73.75
67109;BME280;54027;50.786;7.058;2023-05-20T01:41:49;101611.31;;;11.43;74.09
67109;BME280;54027;50.786;7.058;2023-05-20T01:44:15;101609.63;;;11.45;73.40
67109;BME280;54027;50.786;7.058;2023-05-20T01:46:40;101613.91;;;11.43;73.82
67109;BME280;54027;50.786;7.058;2023-05-20T01:49:05;101612.19;;;11.44;73.24
67109;BME280;54027;50.786;7.058;2023-05-20T01:51:31;101608.75;;;11.45;73.16
67109;BME280;54027;50.786;7.058;2023-05-20T01:53:59;101603.56;;;11.46;72.97
67109;BME280;54027;50.786;7.058;2023-05-20T01:56:24;101600.97;;;11.46;72.92
67109;BME280;54027;50.786;7.058;2023-05-20T01:58:50;101599.28;;;11.45;73.24
67109;BME280;54027;50.786;7.058;2023-05-20T02:01:15;101599.25;;;11.47;73.19
67109;BME280;54027;50.786;7.058;2023-05-20T02:03:41;101600.06;;;11.43;72.52
67109;BME280;54027;50.786;7.058;2023-05-20T02:06:06;101597.50;;;11.41;73.43
67109;BME280;54027;50.786;7.058;2023-05-20T02:08:31;101597.47;;;11.40;73.00
67109;BME280;54027;50.786;7.058;2023-05-20T02:10:57;101604.38;;;11.34;74.17
67109;BME280;54027;50.786;7.058;2023-05-20T02:13:22;101604.38;;;11.27;74.27
67109;BME280;54027;50.786;7.058;2023-05-20T02:15:47;101612.13;;;11.21;74.60
67109;BME280;54027;50.786;7.058;2023-05-20T02:18:13;101607.81;;;11.15;75.10
67109;BME280;54027;50.786;7.058;2023-05-20T02:20:38;101605.19;;;11.11;74.84
67109;BME280;54027;50.786;7.058;2023-05-20T02:23:03;101602.59;;;11.08;75.32
67109;BME280;54027;50.786;7.058;2023-05-20T02:25:30;101599.16;;;11.09;74.62
67109;BME280;54027;50.786;7.058;2023-05-20T02:27:56;101601.75;;;11.09;74.60
67109;BME280;54027;50.786;7.058;2023-05-20T02:30:21;101606.03;;;11.05;75.01
67109;BME280;54027;50.786;7.058;2023-05-20T02:32:47;101603.44;;;11.02;75.19
67109;BME280;54027;50.786;7.058;2023-05-20T02:35:12;101608.59;;;10.99;75.28
67109;BME280;54027;50.786;7.058;2023-05-20T02:37:37;101606.88;;;10.97;76.09
67109;BME280;54027;50.786;7.058;2023-05-20T02:40:04;101603.41;;;10.93;76.08
67109;BME280;54027;50.786;7.058;2023-05-20T02:42:30;101601.66;;;10.89;76.86
67109;BME280;54027;50.786;7.058;2023-05-20T02:44:56;101602.50;;;10.87;76.94
67109;BME280;54027;50.786;7.058;2023-05-20T02:47:23;101599.94;;;10.88;76.58
67109;BME280;54027;50.786;7.058;2023-05-20T02:49:49;101599.09;;;10.91;76.50
67109;BME280;54027;50.786;7.058;2023-05-20T02:52:14;101589.59;;;10.93;76.09
67109;BME280;54027;50.786;7.058;2023-05-20T02:54:40;101590.47;;;10.96;76.42
67109;BME280;54027;50.786;7.058;2023-05-20T02:57:05;101590.50;;;10.99;76.07
67109;BME280;54027;50.786;7.058;2023-05-20T02:59:31;101585.31;;;10.99;75.90
67109;BME280;54027;50.786;7.058;2023-05-20T03:01:56;101593.09;;;11.01;75.63
67109;BME280;54027;50.786;7.058;2023-05-20T03:04:22;101585.31;;;11.02;75.47
67109;BME280;54027;50.786;7.058;2023-05-20T03:06:49;101580.19;;;11.04;75.36
67109;BME280;54027;50.786;7.058;2023-05-20T03:09:16;101578.44;;;11.06;75.00
67109;BME280;54027;50.786;7.058;2023-05-20T03:11:43;101568.94;;;11.05;74.88
67109;BME280;54027;50.786;7.058;2023-05-20T03:14:08;101566.34;;;11.05;74.74
67109;BME280;54027;50.786;7.058;2023-05-20T03:16:33;101571.56;;;11.06;74.21
67109;BME280;54027;50.786;7.058;2023-05-20T03:19:00;101572.44;;;11.07;74.67
67109;BME280;54027;50.786;7.058;2023-05-20T03:21:25;101570.69;;;11.06;74.57
67109;BME280;54027;50.786;7.058;2023-05-20T03:23:50;101570.69;;;11.03;74.82
67109;BME280;54027;50.786;7.058;2023-05-20T03:26:16;101581.00;;;10.98;75.04
67109;BME280;54027;50.786;7.058;2023-05-20T03:28:41;101585.31;;;10.96;75.33
67109;BME280;54027;50.786;7.058;2023-05-20T03:31:07;101587.91;;;10.92;76.20
67109;BME280;54027;50.786;7.058;2023-05-20T03:33:33;101587.00;;;10.87;76.66
67109;BME280;54027;50.786;7.058;2023-05-20T03:35:59;101586.13;;;10.82;76.43
67109;BME280;54027;50.786;7.058;2023-05-20T03:38:24;101588.72;;;10.77;77.36
67109;BME280;54027;50.786;7.058;2023-05-20T03:40:50;101594.72;;;10.73;77.64
67109;BME280;54027;50.786;7.058;2023-05-20T03:43:15;101594.69;;;10.68;78.08
67109;BME280;54027;50.786;7.058;2023-05-20T03:45:40;101590.38;;;10.64;77.80
67109;BME280;54027;50.786;7.058;2023-05-20T03:48:06;101599.81;;;10.62;77.83
67109;BME280;54027;50.786;7.058;2023-05-20T03:50:31;101594.66;;;10.61;78.61
67109;BME280;54027;50.786;7.058;2023-05-20T03:52:57;101595.53;;;10.61;78.14
67109;BME280;54027;50.786;7.058;2023-05-20T03:55:22;101598.09;;;10.63;78.67
67109;BME280;54027;50.786;7.058;2023-05-20T03:57:49;101599.84;;;10.64;79.02
67109;BME280;54027;50.786;7.058;2023-05-20T04:00:14;101596.41;;;10.66;78.49
67109;BME280;54027;50.786;7.058;2023-05-20T04:02:41;101599.88;;;10.70;78.53
67109;BME280;54027;50.786;7.058;2023-05-20T04:05:06;101600.72;;;10.72;78.61
67109;BME280;54027;50.786;7.058;2023-05-20T04:07:36;101589.53;;;10.77;78.86
67109;BME280;54027;50.786;7.058;2023-05-20T04:10:02;101588.72;;;10.83;79.09
67109;BME280;54027;50.786;7.058;2023-05-20T04:12:28;101587.03;;;10.91;78.43
67109;BME280;54027;50.786;7.058;2023-05-20T04:14:59;101586.19;;;10.97;78.90
67109;BME280;54027;50.786;7.058;2023-05-20T04:17:28;101583.63;;;11.03;78.43
67109;BME280;54027;50.786;7.058;2023-05-20T04:19:56;101581.03;;;11.10;78.92
67109;BME280;54027;50.786;7.058;2023-05-20T04:22:24;101591.41;;;11.18;78.23
67109;BME280;54027;50.786;7.058;2023-05-20T04:24:50;101586.25;;;11.21;77.75
67109;BME280;54027;50.786;7.058;2023-05-20T04:27:16;101589.69;;;11.26;77.35
67109;BME280;54027;50.786;7.058;2023-05-20T04:29:41;101583.69;;;11.30;77.35
67109;BME280;54027;50.786;7.058;2023-05-20T04:32:19;101576.78;;;11.33;76.84
67109;BME280;54027;50.786;7.058;2023-05-20T04:34:45;101580.25;;;11.39;76.68
67109;BME280;54027;50.786;7.058;2023-05-20T04:37:11;101577.66;;;11.42;76.43
67109;BME280;54027;50.786;7.058;2023-05-20T04:39:37;101578.53;;;11.44;76.72
67109;BME280;54027;50.786;7.058;2023-05-20T04:42:03;101576.81;;;11.46;76.17
67109;BME280;54027;50.786;7.058;2023-05-20T04:44:29;101577.69;;;11.51;75.94
67109;BME280;54027;50.786;7.058;2023-05-20T04:46:56;101580.28;;;11.54;76.01
67109;BME280;54027;50.786;7.058;2023-05-20T04:49:25;101581.16;;;11.59;75.80
67109;BME280;54027;50.786;7.058;2023-05-20T04:51:51;101579.41;;;11.67;75.27
67109;BME280;54027;50.786;7.058;2023-05-20T04:54:16;101569.06;;;11.77;74.39
67109;BME280;54027;50.786;7.058;2023-05-20T04:56:45;101563.88;;;11.83;73.97
67109;BME280;54027;50.786;7.058;2023-05-20T04:59:11;101553.53;;;11.89;73.69
67109;BME280;54027;50.786;7.058;2023-05-20T05:01:37;101551.78;;;11.98;72.90
67109;BME280;54027;50.786;7.058;2023-05-20T05:04:02;101550.03;;;12.07;72.98
67109;BME280;54027;50.786;7.058;2023-05-20T05:06:28;101546.56;;;12.16;72.46
67109;BME280;54027;50.786;7.058;2023-05-20T05:08:53;101550.84;;;12.24;72.50
67109;BME280;54027;50.786;7.058;2023-05-20T05:11:18;101542.19;;;12.33;71.89
67109;BME280;54027;50.786;7.058;2023-05-20T05:13:44;101532.63;;;12.45;71.26
67109;BME280;54027;50.786;7.058;2023-05-20T05:16:09;101524.81;;;12.61;70.84
67109;BME280;54027;50.786;7.058;2023-05-20T05:18:35;101522.97;;;12.76;70.39
67109;BME280;54027;50.786;7.058;2023-05-20T05:21:01;101518.59;;;12.86;70.17
67109;BME280;54027;50.786;7.058;2023-05-20T05:23:26;101506.44;;;12.95;69.66
67109;BME280;54027;50.786;7.058;2023-05-20T05:25:52;101498.63;;;13.03;69.43
67109;BME280;54027;50.786;7.058;2023-05-20T05:28:18;101500.28;;;13.16;69.50
67109;BME280;54027;50.786;7.058;2023-05-20T05:30:43;101505.41;;;13.25;69.19
67109;BME280;54027;50.786;7.058;2023-05-20T05:33:08;101489.69;;;13.39;68.69
67109;BME280;54027;50.786;7.058;2023-05-20T05:35:34;101491.31;;;13.50;68.39
67109;BME280;54027;50.786;7.058;2023-05-20T05:38:00;101480.00;;;13.62;67.48
67109;BME280;54027;50.786;7.058;2023-05-20T05:40:26;101477.25;;;13.74;67.73
67109;BME280;54027;50.786;7.058;2023-05-20T05:42:51;101472.78;;;13.87;67.24
67109;BME280;54027;50.786;7.058;2023-05-20T05:45:17;101471.88;;;13.92;66.34
67109;BME280;54027;50.786;7.058;2023-05-20T05:47:42;101464.88;;;13.99;66.34
67109;BME280;54027;50.786;7.058;2023-05-20T05:50:08;101464.78;;;14.05;66.84
67109;BME280;54027;50.786;7.058;2023-05-20T05:52:34;101450.03;;;14.07;65.79
67109;BME280;54027;50.786;7.058;2023-05-20T05:55:00;101458.69;;;14.07;65.56
67109;BME280;54027;50.786;7.058;2023-05-20T05:57:26;101463.00;;;14.11;65.57
67109;BME280;54027;50.786;7.058;2023-05-20T05:59:51;101464.63;;;14.22;66.39
67109;BME280;54027;50.786;7.058;2023-05-20T06:02:17;101463.56;;;14.39;65.95
67109;BME280;54027;50.786;7.058;2023-05-20T06:04:42;101469.41;;;14.56;66.58
67109;BME280;54027;50.786;7.058;2023-05-20T06:07:08;101458.72;;;14.75;65.54
67109;BME280;54027;50.786;7.058;2023-05-20T06:09:33;101430.06;;;14.76;64.27
67109;BME280;54027;50.786;7.058;2023-05-20T06:11:59;101442.31;;;14.71;64.24
67109;BME280;54027;50.786;7.058;2023-05-20T06:14:24;101461.19;;;14.84;65.16
67109;BME280;54027;50.786;7.058;2023-05-20T06:16:50;101474.03;;;14.96;66.03
67109;BME280;54027;50.786;7.058;2023-05-20T06:19:15;101447.16;;;14.94;64.42
67109;BME280;54027;50.786;7.058;2023-05-20T06:21:41;101452.41;;;14.91;64.71
67109;BME280;54027;50.786;7.058;2023-05-20T06:24:06;101449.66;;;15.00;64.23
67109;BME280;54027;50.786;7.058;2023-05-20T06:26:32;101443.69;;;14.95;63.61
67109;BME280;54027;50.786;7.058;2023-05-20T06:28:57;101439.28;;;14.97;63.60
67109;BME280;54027;50.786;7.058;2023-05-20T06:31:22;101457.38;;;15.06;64.15
67109;BME280;54027;50.786;7.058;2023-05-20T06:33:48;101448.66;;;15.10;64.04
67109;BME280;54027;50.786;7.058;2023-05-20T06:36:13;101436.44;;;15.13;63.25
67109;BME280;54027;50.786;7.058;2023-05-20T06:38:38;101439.09;;;15.09;63.01
67109;BME280;54027;50.786;7.058;2023-05-20T06:41:04;101445.03;;;15.17;62.81
67109;BME280;54027;50.786;7.058;2023-05-20T06:43:29;101429.34;;;15.20;62.72
67109;BME280;54027;50.786;7.058;2023-05-20T06:45:55;101432.63;;;15.34;62.61
67109;BME280;54027;50.786;7.058;2023-05-20T06:48:20;101437.53;;;15.51;63.28
67109;BME280;54027;50.786;7.058;2023-05-20T06:50:46;101422.47;;;15.68;62.14
67109;BME280;54027;50.786;7.058;2023-05-20T06:53:11;101402.34;;;15.76;61.60
67109;BME280;54027;50.786;7.058;2023-05-20T06:55:37;101398.88;;;15.74;61.01
67109;BME280;54027;50.786;7.058;2023-05-20T06:58:02;101415.28;;;15.81;61.96
67109;BME280;54027;50.786;7.058;2023-05-20T07:00:28;101413.66;;;15.73;61.62
67109;BME280;54027;50.786;7.058;2023-05-20T07:02:53;101423.78;;;15.90;62.51
67109;BME280;54027;50.786;7.058;2023-05-20T07:05:19;101423.91;;;16.25;61.92
67109;BME280;54027;50.786;7.058;2023-05-20T07:07:44;101377.44;;;16.43;60.29
67109;BME280;54027;50.786;7.058;2023-05-20T07:10:10;101374.22;;;16.30;60.24
67109;BME280;54027;50.786;7.058;2023-05-20T07:12:35;101377.09;;;16.58;59.42
67109;BME280;54027;50.786;7.058;2023-05-20T07:15:01;101355.72;;;16.79;59.05
67109;BME280;54027;50.786;7.058;2023-05-20T07:17:26;101359.31;;;16.73;58.83
67109;BME280;54027;50.786;7.058;2023-05-20T07:19:54;101350.56;;;16.74;58.24
67109;BME280;54027;50.786;7.058;2023-05-20T07:22:19;101380.94;;;16.42;60.09
67109;BME280;54027;50.786;7.058;2023-05-20T07:24:45;101365.63;;;16.63;59.21
67109;BME280;54027;50.786;7.058;2023-05-20T07:27:10;101390.81;;;16.66;60.86
67109;BME280;54027;50.786;7.058;2023-05-20T07:29:36;101374.94;;;16.75;59.98
67109;BME280;54027;50.786;7.058;2023-05-20T07:32:07;101359.22;;;16.78;59.55
67109;BME280;54027;50.786;7.058;2023-05-20T07:34:32;101357.75;;;17.03;59.17
67109;BME280;54027;50.786;7.058;2023-05-20T07:36:58;101352.34;;;17.09;58.97
67109;BME280;54027;50.786;7.058;2023-05-20T07:39:23;101356.25;;;17.27;59.25
67109;BME280;54027;50.786;7.058;2023-05-20T07:41:49;101358.88;;;17.58;59.07
67109;BME280;54027;50.786;7.058;2023-05-20T07:44:15;101325.81;;;17.57;57.36
67109;BME280;54027;50.786;7.058;2023-05-20T07:46:43;101332.88;;;17.53;57.70
67109;BME280;54027;50.786;7.058;2023-05-20T07:49:08;101318.84;;;17.56;57.23
67109;BME280;54027;50.786;7.058;2023-05-20T07:51:34;101330.69;;;17.69;58.00
67109;BME280;54027;50.786;7.058;2023-05-20T07:53:59;101319.38;;;17.68;57.58
67109;BME280;54027;50.786;7.058;2023-05-20T07:56:25;101312.31;;;17.70;57.17
67109;BME280;54027;50.786;7.058;2023-05-20T07:58:53;101314.84;;;17.42;57.21
67109;BME280;54027;50.786;7.058;2023-05-20T08:01:19;101334.31;;;17.32;58.10
67109;BME280;54027;50.786;7.058;2023-05-20T08:03:45;101343.56;;;17.44;59.00
67109;BME280;54027;50.786;7.058;2023-05-20T08:06:10;101315.91;;;17.66;57.13
67109;BME280;54027;50.786;7.058;2023-05-20T08:08:36;101310.41;;;17.77;56.90
67109;BME280;54027;50.786;7.058;2023-05-20T08:11:01;101314.78;;;18.06;57.04
67109;BME280;54027;50.786;7.058;2023-05-20T08:13:28;101305.78;;;18.14;56.74
67109;BME280;54027;50.786;7.058;2023-05-20T08:15:53;101321.84;;;18.31;57.73
67109;BME280;54027;50.786;7.058;2023-05-20T08:18:19;101291.91;;;18.66;56.04
67109;BME280;54027;50.786;7.058;2023-05-20T08:20:44;101268.28;;;18.94;54.61
67109;BME280;54027;50.786;7.058;2023-05-20T08:23:10;101270.78;;;18.97;54.59
67109;BME280;54027;50.786;7.058;2023-05-20T08:25:35;101273.38;;;19.23;54.43
67109;BME280;54027;50.786;7.058;2023-05-20T08:28:03;101264.03;;;19.15;53.58
67109;BME280;54027;50.786;7.058;2023-05-20T08:30:30;101272.84;;;19.14;54.57
67109;BME280;54027;50.786;7.058;2023-05-20T08:32:55;101273.94;;;19.31;54.34
67109;BME280;54027;50.786;7.058;2023-05-20T08:35:22;101267.84;;;19.54;54.16
67109;BME280;54027;50.786;7.058;2023-05-20T08:37:48;101245.78;;;19.59;53.51
67109;BME280;54027;50.786;7.058;2023-05-20T08:40:13;101266.72;;;19.84;54.28
67109;BME280;54027;50.786;7.058;2023-05-20T08:42:42;101283.97;;;19.67;55.14
67109;BME280;54027;50.786;7.058;2023-05-20T08:45:11;101282.66;;;19.80;54.69
67109;BME280;54027;50.786;7.058;2023-05-20T08:47:41;101246.81;;;19.79;53.09
67109;BME280;54027;50.786;7.058;2023-05-20T08:50:08;101245.19;;;19.75;52.75
67109;BME280;54027;50.786;7.058;2023-05-20T08:52:36;101240.44;;;19.86;52.81
67109;BME280;54027;50.786;7.058;2023-05-20T08:55:03;101226.78;;;19.76;51.70
67109;BME280;54027;50.786;7.058;2023-05-20T08:57:32;101251.84;;;19.61;52.56
67109;BME280;54027;50.786;7.058;2023-05-20T08:59:58;101261.69;;;19.78;53.23
67109;BME280;54027;50.786;7.058;2023-05-20T09:02:24;101248.56;;;19.80;52.44
67109;BME280;54027;50.786;7.058;2023-05-20T09:04:49;101250.25;;;20.02;52.57
67109;BME280;54027;50.786;7.058;2023-05-20T09:07:28;101252.94;;;20.23;52.90
67109;BME280;54027;50.786;7.058;2023-05-20T09:09:53;101227.59;;;20.22;51.39
67109;BME280;54027;50.786;7.058;2023-05-20T09:12:20;101257.44;;;20.19;52.94
67109;BME280;54027;50.786;7.058;2023-05-20T09:14:45;101252.38;;;19.93;52.63
67109;BME280;54027;50.786;7.058;2023-05-20T09:17:12;101264.09;;;19.84;53.27
67109;BME280;54027;50.786;7.058;2023-05-20T09:19:37;101241.34;;;19.85;52.23
67109;BME280;54027;50.786;7.058;2023-05-20T09:22:03;101247.44;;;19.85;52.89
67109;BME280;54027;50.786;7.058;2023-05-20T09:24:29;101242.25;;;19.84;52.65
67109;BME280;54027;50.786;7.058;2023-05-20T09:26:55;101255.75;;;19.96;53.43
67109;BME280;54027;50.786;7.058;2023-05-20T09:29:22;101250.50;;;19.96;53.81
67109;BME280;54027;50.786;7.058;2023-05-20T09:31:48;101262.78;;;20.17;53.74
67109;BME280;54027;50.786;7.058;2023-05-20T09:34:14;101238.59;;;20.51;52.78
67109;BME280;54027;50.786;7.058;2023-05-20T09:36:42;101256.81;;;20.78;53.63
67109;BME280;54027;50.786;7.058;2023-05-20T09:39:13;101242.66;;;21.00;52.60
67109;BME280;54027;50.786;7.058;2023-05-20T09:44:11;101206.41;;;21.27;50.77
67109;BME280;54027;50.786;7.058;2023-05-20T09:46:37;101195.09;;;21.44;50.35
67109;BME280;54027;50.786;7.058;2023-05-20T09:49:04;101210.25;;;21.39;50.93
67109;BME280;54027;50.786;7.058;2023-05-20T09:51:32;101215.88;;;21.50;50.96
67109;BME280;54027;50.786;7.058;2023-05-20T09:53:59;101218.06;;;21.21;50.71
67109;BME280;54027;50.786;7.058;2023-05-20T09:56:25;101215.75;;;21.34;50.59
67109;BME280;54027;50.786;7.058;2023-05-20T09:58:52;101214.75;;;21.37;50.12
67109;BME280;54027;50.786;7.058;2023-05-20T10:01:22;101202.25;;;21.03;49.72
67109;BME280;54027;50.786;7.058;2023-05-20T10:03:48;101198.13;;;20.97;49.41
67109;BME280;54027;50.786;7.058;2023-05-20T10:06:48;101216.47;;;21.17;49.26
67109;BME280;54027;50.786;7.058;2023-05-20T10:12:25;101212.31;;;20.93;49.56
67109;BME280;54027;50.786;7.058;2023-05-20T10:15:06;101260.84;;;21.05;51.75
67109;BME280;54027;50.786;7.058;2023-05-20T10:17:45;101229.72;;;20.96;50.13
67109;BME280;54027;50.786;7.058;2023-05-20T10:20:15;101220.47;;;21.07;49.83
67109;BME280;54027;50.786;7.058;2023-05-20T10:22:40;101225.00;;;21.04;50.34
67109;BME280;54027;50.786;7.058;2023-05-20T10:25:10;101226.03;;;21.00;50.44
67109;BME280;54027;50.786;7.058;2023-05-20T10:27:43;101246.03;;;21.04;51.38
67109;BME280;54027;50.786;7.058;2023-05-20T10:30:17;101245.09;;;20.85;51.84
67109;BME280;54027;50.786;7.058;2023-05-20T10:32:53;101234.16;;;20.95;50.82
67109;BME280;54027;50.786;7.058;2023-05-20T10:35:25;101223.03;;;20.89;50.34
67109;BME280;54027;50.786;7.058;2023-05-20T10:37:53;101224.81;;;20.88;50.34
67109;BME280;54027;50.786;7.058;2023-05-20T10:40:20;101256.16;;;20.93;52.06
67109;BME280;54027;50.786;7.058;2023-05-20T10:42:46;101252.66;;;20.92;51.47
67109;BME280;54027;50.786;7.058;2023-05-20T10:45:25;101234.16;;;20.53;51.09
67109;BME280;54027;50.786;7.058;2023-05-20T10:47:55;101253.31;;;20.77;51.95
67109;BME280;54027;50.786;7.058;2023-05-20T10:50:34;101235.75;;;21.18;50.93
67109;BME280;54027;50.786;7.058;2023-05-20T10:53:04;101208.31;;;21.23;49.57
67109;BME280;54027;50.786;7.058;2023-05-20T10:55:37;101212.72;;;21.23;50.13
67109;BME280;54027;50.786;7.058;2023-05-20T10:58:04;101225.47;;;21.51;51.07
67109;BME280;54027;50.786;7.058;2023-05-20T11:00:33;101194.94;;;21.67;48.64
67109;BME280;54027;50.786;7.058;2023-05-20T11:02:59;101222.34;;;21.43;50.47
67109;BME280;54027;50.786;7.058;2023-05-20T11:05:25;101207.72;;;21.37;49.48
67109;BME280;54027;50.786;7.058;2023-05-20T11:07:59;101197.81;;;21.23;49.22
67109;BME280;54027;50.786;7.058;2023-05-20T11:10:25;101201.00;;;21.30;49.79
67109;BME280;54027;50.786;7.058;2023-05-20T11:12:50;101218.78;;;21.25;50.61
67109;BME280;54027;50.786;7.058;2023-05-20T11:15:16;101219.69;;;21.24;50.13
67109;BME280;54027;50.786;7.058;2023-05-20T11:17:52;101221.16;;;21.11;51.31
67109;BME280;54027;50.786;7.058;2023-05-20T11:20:18;101238.78;;;21.09;51.48
67109;BME280;54027;50.786;7.058;2023-05-20T11:22:44;101249.88;;;21.15;52.08
67109;BME280;54027;50.786;7.058;2023-05-20T11:25:09;101248.69;;;21.02;52.37
67109;BME280;54027;50.786;7.058;2023-05-20T11:27:38;101241.16;;;20.95;52.20
67109;BME280;54027;50.786;7.058;2023-05-20T11:30:04;101218.19;;;20.80;51.11
67109;BME280;54027;50.786;7.058;2023-05-20T11:32:30;101210.91;;;21.05;51.00
67109;BME280;54027;50.786;7.058;2023-05-20T11:34:55;101201.25;;;20.87;51.07
67109;BME280;54027;50.786;7.058;2023-05-20T11:37:22;101220.41;;;20.89;51.83
67109;BME280;54027;50.786;7.058;2023-05-20T11:39:48;101243.13;;;21.10;52.77
67109;BME280;54027;50.786;7.058;2023-05-20T11:42:14;101223.91;;;21.28;51.58
67109;BME280;54027;50.786;7.058;2023-05-20T11:44:43;101223.03;;;21.46;51.64
67109;BME280;54027;50.786;7.058;2023-05-20T11:47:09;101200.75;;;21.73;50.53
67109;BME280;54027;50.786;7.058;2023-05-20T11:49:40;101181.19;;;21.79;49.32
67109;BME280;54027;50.786;7.058;2023-05-20T11:52:08;101173.97;;;22.01;48.70
67109;BME280;54027;50.786;7.058;2023-05-20T11:54:36;101180.81;;;22.22;49.71
67109;BME280;54027;50.786;7.058;2023-05-20T11:57:02;101161.19;;;22.11;48.52
67109;BME280;54027;50.786;7.058;2023-05-20T11:59:27;101171.94;;;21.70;49.11
67109;BME280;54027;50.786;7.058;2023-05-20T12:01:53;101172.38;;;21.80;49.83
67109;BME280;54027;50.786;7.058;2023-05-20T12:04:18;101178.63;;;22.13;50.28
67109;BME280;54027;50.786;7.058;2023-05-20T12:06:44;101154.00;;;22.31;48.52
67109;BME280;54027;50.786;7.058;2023-05-20T12:09:10;101166.50;;;22.45;48.98
67109;BME280;54027;50.786;7.058;2023-05-20T12:11:36;101153.31;;;22.45;48.28
67109;BME280;54027;50.786;7.058;2023-05-20T12:14:02;101140.84;;;22.14;47.20
67109;BME280;54027;50.786;7.058;2023-05-20T12:16:30;101151.91;;;22.21;48.37
67109;BME280;54027;50.786;7.058;2023-05-20T12:18:56;101152.97;;;22.00;48.24
67109;BME280;54027;50.786;7.058;2023-05-20T12:21:21;101169.88;;;21.77;49.43
67109;BME280;54027;50.786;7.058;2023-05-20T12:23:46;101182.13;;;21.59;49.92
67109;BME280;54027;50.786;7.058;2023-05-20T12:26:12;101177.34;;;21.67;49.89
67109;BME280;54027;50.786;7.058;2023-05-20T12:28:37;101170.09;;;21.54;49.73
67109;BME280;54027;50.786;7.058;2023-05-20T12:31:02;101181.06;;;21.63;50.42
67109;BME280;54027;50.786;7.058;2023-05-20T12:33:28;101172.63;;;21.57;50.03
67109;BME280;54027;50.786;7.058;2023-05-20T12:35:53;101167.34;;;21.75;49.67
67109;BME280;54027;50.786;7.058;2023-05-20T12:38:18;101166.38;;;21.76;49.85
67109;BME280;54027;50.786;7.058;2023-05-20T12:40:44;101158.41;;;21.61;48.86
67109;BME280;54027;50.786;7.058;2023-05-20T12:43:09;101171.00;;;21.53;50.06
67109;BME280;54027;50.786;7.058;2023-05-20T12:45:35;101165.34;;;21.43;49.86
67109;BME280;54027;50.786;7.058;2023-05-20T12:48:00;101171.38;;;21.45;50.24
67109;BME280;54027;50.786;7.058;2023-05-20T12:50:26;101170.47;;;21.27;50.51
67109;BME280;54027;50.786;7.058;2023-05-20T12:52:52;101181.13;;;21.24;51.03
67109;BME280;54027;50.786;7.058;2023-05-20T12:55:17;101178.22;;;21.31;50.62